createdAt,value
2023-03-03T00:00:46.301Z,39.00
2023-03-03T00:05:53.519Z,41.50
2023-03-03T00:10:55.782Z,42.80
2023-03-03T00:15:55.846Z,24.30
2023-03-03T00:21:01.120Z,30.50
2023-03-03T00:26:01.330Z,40.30
2023-03-03T00:31:03.919Z,45.00
2023-03-03T00:36:23.657Z,32.80
2023-03-03T00:41:29.633Z,35.40
2023-03-03T00:46:29.416Z,34.10
2023-03-03T00:51:36.083Z,32.10
2023-03-03T00:56:36.622Z,32.40
2023-03-03T01:01:36.612Z,21.70
2023-03-03T01:06:36.357Z,35.90
2023-03-03T01:11:36.980Z,23.80
2023-03-03T01:16:36.736Z,37.50
2023-03-03T01:21:38.197Z,35.70
2023-03-03T01:26:37.756Z,40.70
2023-03-03T01:31:37.972Z,35.30
2023-03-03T01:36:38.374Z,37.40
2023-03-03T01:41:38.189Z,34.40
2023-03-03T01:46:53.428Z,32.30
2023-03-03T01:51:58.967Z,33.40
2023-03-03T01:57:02.897Z,25.70
2023-03-03T02:02:03.471Z,44.10
2023-03-03T02:07:11.131Z,28.60
2023-03-03T02:12:16.790Z,33.00
2023-03-03T02:17:15.552Z,22.60
2023-03-03T02:22:16.250Z,28.60
2023-03-03T02:27:15.936Z,26.90
2023-03-03T02:32:16.073Z,30.80
2023-03-03T02:37:15.778Z,41.50
2023-03-03T02:42:21.830Z,36.40
2023-03-03T02:47:24.956Z,32.60
2023-03-03T02:52:23.862Z,46.10
2023-03-03T02:57:22.897Z,27.50
2023-03-03T03:02:22.311Z,27.60
2023-03-03T03:07:21.639Z,15.00
2023-03-03T03:12:23.305Z,35.90
2023-03-03T03:17:25.127Z,33.10
2023-03-03T03:22:24.961Z,41.80
2023-03-03T03:27:25.860Z,34.80
2023-03-03T03:32:25.449Z,37.50
2023-03-03T03:37:25.465Z,38.60
2023-03-03T03:42:25.574Z,40.40
2023-03-03T03:47:26.656Z,38.90
2023-03-03T03:52:27.774Z,43.40
2023-03-03T03:57:27.014Z,38.10
2023-03-03T04:02:27.351Z,46.60
2023-03-03T04:07:26.648Z,28.00
2023-03-03T04:12:28.571Z,35.40
2023-03-03T04:17:29.646Z,33.30
2023-03-03T04:22:30.243Z,51.40
2023-03-03T04:27:31.721Z,40.60
2023-03-03T04:32:34.017Z,50.30
2023-03-03T04:37:33.842Z,29.00
2023-03-03T04:42:33.608Z,38.90
2023-03-03T04:47:34.207Z,40.40
2023-03-03T04:52:34.381Z,34.60
2023-03-03T04:57:34.583Z,43.20
2023-03-03T05:02:33.862Z,46.60
2023-03-03T05:07:34.437Z,47.50
2023-03-03T05:12:34.720Z,48.20
2023-03-03T05:17:34.197Z,55.40
2023-03-03T05:22:33.845Z,48.80
2023-03-03T05:27:33.329Z,47.10
2023-03-03T05:32:32.743Z,41.10
2023-03-03T05:37:31.878Z,19.20
2023-03-03T05:42:30.802Z,29.10
2023-03-03T05:47:30.464Z,35.00
2023-03-03T05:52:29.694Z,52.90
2023-03-03T05:57:28.453Z,58.70
2023-03-03T06:02:28.075Z,49.20
2023-03-03T06:07:29.268Z,24.70
2023-03-03T06:12:29.839Z,60.30
2023-03-03T06:17:29.331Z,60.90
2023-03-03T06:22:29.494Z,45.80
2023-03-03T06:27:29.016Z,68.30
2023-03-03T06:32:27.804Z,72.00
2023-03-03T06:37:27.601Z,66.40
2023-03-03T06:42:26.880Z,55.80
2023-03-03T06:47:26.939Z,63.90
2023-03-03T06:52:29.569Z,62.20
2023-03-03T06:57:33.910Z,60.50
2023-03-03T07:02:33.361Z,59.90
2023-03-03T07:07:34.072Z,71.30
2023-03-03T07:12:37.107Z,71.70
2023-03-03T07:17:45.795Z,37.10
2023-03-03T07:22:45.026Z,55.50
2023-03-03T07:27:44.232Z,46.80
2023-03-03T07:32:47.544Z,40.90
2023-03-03T07:37:47.879Z,40.30
2023-03-03T07:42:47.930Z,40.30
2023-03-03T07:48:09.497Z,40.50
2023-03-03T07:53:23.270Z,48.90
2023-03-03T07:58:37.536Z,39.40
2023-03-03T08:03:40.469Z,32.30
2023-03-03T08:08:43.972Z,40.10
2023-03-03T08:13:47.093Z,38.30
2023-03-03T08:18:51.572Z,39.60
2023-03-03T08:23:51.832Z,34.30
2023-03-03T08:28:52.158Z,39.00
2023-03-03T08:33:52.014Z,42.30
2023-03-03T08:38:51.250Z,23.70
2023-03-03T08:43:50.500Z,33.50
2023-03-03T08:48:50.040Z,36.90
2023-03-03T08:53:49.102Z,31.60
2023-03-03T08:59:02.223Z,23.70
2023-03-03T09:04:02.508Z,39.00
2023-03-03T09:09:02.924Z,35.10
2023-03-03T09:14:08.653Z,36.80
2023-03-03T09:19:25.029Z,37.90
2023-03-03T09:24:32.121Z,23.50
2023-03-03T09:29:38.403Z,21.40
2023-03-03T09:34:45.077Z,35.30
2023-03-03T09:39:44.783Z,32.70
2023-03-03T09:45:42.113Z,30.60
2023-03-03T09:50:56.282Z,29.00
2023-03-03T09:56:05.439Z,35.70
2023-03-03T10:01:22.347Z,35.30
2023-03-03T10:06:30.339Z,20.30
2023-03-03T10:11:39.968Z,23.90
2023-03-03T10:17:07.729Z,23.40
2023-03-03T10:22:24.485Z,35.40
2023-03-03T10:27:43.412Z,26.50
2023-03-03T10:32:52.586Z,25.10
2023-03-03T10:38:14.990Z,31.00
2023-03-03T10:43:51.733Z,21.00
2023-03-03T10:49:13.723Z,27.10
2023-03-03T10:54:31.941Z,28.10
2023-03-03T11:00:05.603Z,39.10
2023-03-03T11:05:22.903Z,28.60
2023-03-03T11:10:45.870Z,30.50
2023-03-03T11:16:07.874Z,27.50
2023-03-03T11:21:20.633Z,44.60
2023-03-03T11:26:37.943Z,26.90
2023-03-03T11:31:45.935Z,46.90
2023-03-03T11:36:51.210Z,30.40
2023-03-03T11:42:08.151Z,26.80
2023-03-03T11:47:19.466Z,21.20
2023-03-03T11:52:33.889Z,19.50
2023-03-03T11:57:41.903Z,25.70
2023-03-03T12:03:06.933Z,20.70
2023-03-03T12:08:15.734Z,28.90
2023-03-03T12:13:29.814Z,33.60
2023-03-03T12:19:05.928Z,31.10
2023-03-03T12:24:35.368Z,27.20
2023-03-03T12:29:52.018Z,34.70
2023-03-03T12:34:59.612Z,56.20
2023-03-03T12:40:09.878Z,38.40
2023-03-03T12:45:28.435Z,52.40
2023-03-03T12:50:43.876Z,38.10
2023-03-03T12:55:54.385Z,47.90
2023-03-03T13:01:05.583Z,33.60
2023-03-03T13:06:19.360Z,53.50
2023-03-03T13:11:51.932Z,54.10
2023-03-03T13:17:06.561Z,51.90
2023-03-03T13:22:14.942Z,41.70
2023-03-03T13:27:18.484Z,38.60
2023-03-03T13:32:25.437Z,33.30
2023-03-03T13:37:29.358Z,38.30
2023-03-03T13:42:39.418Z,32.10
2023-03-03T13:47:52.456Z,29.90
2023-03-03T13:53:09.443Z,34.10
2023-03-03T13:58:24.670Z,49.80
2023-03-03T14:04:01.046Z,31.70
2023-03-03T14:09:38.023Z,37.70
2023-03-03T14:14:55.005Z,36.70
2023-03-03T14:20:08.167Z,27.00
2023-03-03T14:25:13.860Z,32.50
2023-03-03T14:30:41.818Z,42.10
2023-03-03T14:35:44.401Z,20.20
2023-03-03T14:40:48.216Z,33.70
2023-03-03T14:45:47.666Z,39.80
2023-03-03T14:51:21.649Z,43.50
2023-03-03T14:56:28.582Z,38.90
2023-03-03T15:01:38.468Z,23.90
2023-03-03T15:06:45.740Z,32.40
2023-03-03T15:11:47.862Z,24.60
2023-03-03T15:16:47.614Z,17.70
2023-03-03T15:22:00.063Z,30.40
2023-03-03T15:27:07.290Z,25.60
2023-03-03T15:32:18.994Z,23.30
2023-03-03T15:37:42.382Z,23.30
2023-03-03T15:42:51.466Z,30.20
2023-03-03T15:48:16.647Z,29.90
2023-03-03T15:53:46.646Z,26.50
2023-03-03T15:59:29.526Z,23.80
2023-03-03T16:04:36.214Z,27.00
2023-03-03T16:09:56.604Z,16.90
2023-03-03T16:15:36.565Z,26.30
2023-03-03T16:20:46.909Z,20.30
2023-03-03T16:26:05.922Z,23.80
2023-03-03T16:31:15.180Z,16.30
2023-03-03T16:36:29.791Z,18.90
2023-03-03T16:41:44.316Z,17.50
2023-03-03T16:46:47.930Z,15.40
2023-03-03T16:51:55.304Z,17.80
2023-03-03T16:57:09.999Z,12.90
2023-03-03T17:02:42.790Z,16.10
2023-03-03T17:07:56.787Z,18.60
2023-03-03T17:13:40.246Z,18.70
2023-03-03T17:18:57.137Z,15.30
2023-03-03T17:24:14.822Z,28.70
2023-03-03T17:29:56.490Z,24.10
2023-03-03T17:35:16.296Z,21.10
2023-03-03T17:40:43.023Z,22.00
2023-03-03T17:45:48.056Z,24.00
2023-03-03T17:51:13.733Z,24.00
2023-03-03T17:56:25.267Z,22.50
2023-03-03T18:01:41.291Z,19.30
2023-03-03T18:07:22.818Z,20.20
2023-03-03T18:12:40.441Z,19.40
2023-03-03T18:18:04.829Z,15.60
2023-03-03T18:23:34.082Z,20.90
2023-03-03T18:28:51.055Z,24.10
2023-03-03T18:34:11.590Z,25.80
2023-03-03T18:39:17.831Z,27.20
2023-03-03T18:44:33.676Z,18.90
2023-03-03T18:49:59.593Z,27.70
2023-03-03T18:55:29.875Z,26.10
2023-03-03T19:00:33.602Z,23.40
2023-03-03T19:05:54.146Z,19.00
2023-03-03T19:10:58.947Z,15.00
2023-03-03T19:16:03.740Z,26.70
2023-03-03T19:21:09.161Z,23.00
2023-03-03T19:27:01.560Z,29.00
2023-03-03T19:32:20.753Z,21.50
2023-03-03T19:37:43.399Z,27.50
2023-03-03T19:42:55.845Z,22.60
2023-03-03T19:48:06.718Z,25.30
2023-03-03T19:53:20.023Z,30.70
2023-03-03T19:58:32.212Z,26.10
2023-03-03T20:03:50.856Z,21.40
2023-03-03T20:09:01.206Z,22.80
2023-03-03T20:14:11.306Z,22.00
2023-03-03T20:19:32.146Z,22.10
2023-03-03T20:25:03.072Z,27.60
2023-03-03T20:30:26.500Z,22.30
2023-03-03T20:35:40.525Z,31.20
2023-03-03T20:40:51.030Z,20.90
2023-03-03T20:46:05.021Z,19.70
2023-03-03T20:51:15.820Z,26.70
2023-03-03T20:56:22.830Z,28.10
2023-03-03T21:01:35.900Z,29.10
2023-03-03T21:06:44.123Z,27.00
2023-03-03T21:11:49.330Z,17.30
2023-03-03T21:16:49.860Z,29.40
2023-03-03T21:21:52.212Z,30.40
2023-03-03T21:26:55.762Z,22.40
2023-03-03T21:31:57.586Z,27.40
2023-03-03T21:36:59.749Z,28.50
2023-03-03T21:42:04.160Z,28.90
2023-03-03T21:47:03.697Z,35.40
2023-03-03T21:52:06.193Z,35.00
2023-03-03T21:57:05.375Z,30.70
2023-03-03T22:02:04.419Z,30.10
2023-03-03T22:07:03.843Z,27.50
2023-03-03T22:12:05.300Z,40.20
2023-03-03T22:17:05.089Z,25.00
2023-03-03T22:22:04.843Z,20.70
2023-03-03T22:27:04.892Z,28.80
2023-03-03T22:32:04.394Z,22.10
2023-03-03T22:37:03.420Z,36.10
2023-03-03T22:42:06.107Z,30.70
2023-03-03T22:47:06.401Z,36.70
2023-03-03T22:52:05.961Z,23.40
2023-03-03T22:57:05.034Z,28.20
2023-03-03T23:02:06.992Z,30.60
2023-03-03T23:07:06.256Z,34.30
2023-03-03T23:12:05.643Z,35.70
2023-03-03T23:17:05.196Z,31.50
2023-03-03T23:22:04.593Z,38.30
2023-03-03T23:27:04.205Z,30.00
2023-03-03T23:32:04.188Z,23.80
2023-03-03T23:37:04.091Z,26.60
2023-03-03T23:42:03.473Z,28.80
2023-03-03T23:47:03.720Z,33.70
2023-03-03T23:52:03.503Z,22.00
2023-03-03T23:57:02.914Z,24.10
